Route Details

Aircraft Information
Group: North America Fleet
Types: B738, B752, B762, B763
Route Data
Distance: 1028nm
Duration: 3h 20m
Origin METAR: KIAD 072252Z 18005KT 10SM BKN150 OVC200 10/00 A3016 RMK AO2 SLP216 T01000000
Dest. METAR: KAFW 072321Z 01014KT 3SM -DZ BR OVC005 08/08 A3006 RMK AO2 SFC VIS 3 CIG 004V010 P0000 T00830078
Freight Data
(for Feb 7, 2023)
Load Factor:
40%
Manifested Cargo: 35,298lbs
Financial History
Total Freight: 66,969lbs
Average Load: 0lbs/flt
Fuel Used: 21,563lbs
Avg. Fuel Used: 0lbs/flt
Fuel Expense: $26,717
Avg. Fuel Expense: $0
Avg. Fuel Cost: $0/lbs
Total Gross Income: $87,060
Pilot Pay: $69
Total Expenses: $9,454
Total Revenue: $50,227
Average Revenue: $0

Capitol Logistics 393




KIAD
Washington Dulles International Airport
Dulles, Virginia
KAFW
Fort Worth Alliance Airport
Fort Worth, Texas

Activity Log

Date Flight Route Aircraft Duration
09/24/2018 CPX326 RNLDI4 OTTTO Q68 HVQ J6 LIT SASIE5 B752 2h 46m